createdAt,value
2023-02-24T00:02:50.912Z,38.43
2023-02-24T00:05:54.316Z,45.33
2023-02-24T00:08:57.467Z,43.07
2023-02-24T00:12:02.381Z,38.30
2023-02-24T00:15:06.327Z,41.87
2023-02-24T00:18:10.926Z,44.23
2023-02-24T00:21:16.408Z,43.80
2023-02-24T00:24:29.103Z,41.33
2023-02-24T00:27:32.576Z,42.90
2023-02-24T00:30:35.720Z,36.73
2023-02-24T00:33:40.260Z,44.83
2023-02-24T00:36:43.506Z,39.23
2023-02-24T00:39:46.779Z,42.93
2023-02-24T00:42:49.935Z,42.00
2023-02-24T00:45:53.665Z,42.93
2023-02-24T00:48:58.191Z,43.90
2023-02-24T00:52:04.737Z,41.07
2023-02-24T00:55:14.426Z,46.90
2023-02-24T00:58:19.658Z,41.57
2023-02-24T01:01:24.503Z,42.30
2023-02-24T01:04:29.444Z,47.13
2023-02-24T01:07:33.145Z,39.60
2023-02-24T01:10:36.334Z,41.80
2023-02-24T01:13:38.550Z,41.73
2023-02-24T01:16:44.616Z,40.73
2023-02-24T01:19:50.408Z,42.37
2023-02-24T01:22:54.669Z,41.97
2023-02-24T01:26:00.067Z,43.90
2023-02-24T01:29:03.889Z,43.20
2023-02-24T01:32:07.212Z,42.07
2023-02-24T01:35:14.570Z,45.50
2023-02-24T01:38:23.084Z,37.60
2023-02-24T01:41:27.844Z,38.03
2023-02-24T01:45:14.291Z,43.90
2023-02-24T01:48:17.882Z,39.43
2023-02-24T01:51:23.099Z,42.23
2023-02-24T01:54:30.397Z,37.93
2023-02-24T01:57:39.689Z,36.93
2023-02-24T02:00:47.105Z,37.97
2023-02-24T02:03:51.535Z,40.53
2023-02-24T02:06:57.485Z,37.00
2023-02-24T02:10:04.201Z,41.57
2023-02-24T02:13:07.794Z,40.73
2023-02-24T02:16:25.679Z,39.10
2023-02-24T02:20:07.150Z,45.63
2023-02-24T02:23:28.941Z,38.37
2023-02-24T02:27:08.862Z,41.17
2023-02-24T02:30:32.167Z,36.77
2023-02-24T02:34:16.950Z,39.97
2023-02-24T02:37:28.665Z,44.33
2023-02-24T02:40:38.186Z,38.53
2023-02-24T02:43:49.036Z,42.67
2023-02-24T02:46:59.377Z,40.20
2023-02-24T02:50:09.385Z,42.87
2023-02-24T02:53:19.400Z,42.80
2023-02-24T02:56:27.036Z,44.47
2023-02-24T02:59:33.602Z,54.97
2023-02-24T03:02:41.412Z,44.13
2023-02-24T03:05:50.824Z,42.23
2023-02-24T03:08:59.341Z,43.73
2023-02-24T03:12:08.345Z,40.70
2023-02-24T03:15:13.502Z,42.53
2023-02-24T03:18:21.116Z,49.10
2023-02-24T03:21:33.106Z,44.30
2023-02-24T03:24:39.112Z,38.50
2023-02-24T03:27:48.481Z,41.23
2023-02-24T03:31:00.044Z,38.27
2023-02-24T03:34:08.605Z,38.00
2023-02-24T03:37:13.541Z,37.33
2023-02-24T03:40:44.667Z,35.50
2023-02-24T03:43:51.612Z,41.90
2023-02-24T03:46:55.920Z,43.23
2023-02-24T03:49:59.109Z,38.87
2023-02-24T03:53:22.427Z,40.90
2023-02-24T03:56:40.496Z,44.27
2023-02-24T03:59:53.118Z,39.03
2023-02-24T04:03:03.456Z,39.30
2023-02-24T04:06:14.175Z,43.00
2023-02-24T04:09:23.654Z,45.97
2023-02-24T04:12:31.543Z,43.87
2023-02-24T04:15:40.741Z,39.43
2023-02-24T04:18:49.774Z,48.43
2023-02-24T04:21:53.124Z,44.60
2023-02-24T04:25:00.937Z,47.27
2023-02-24T04:28:05.181Z,47.33
2023-02-24T04:31:18.474Z,41.47
2023-02-24T04:34:21.765Z,48.80
2023-02-24T04:37:31.878Z,44.30
2023-02-24T04:40:37.716Z,46.20
2023-02-24T04:43:41.023Z,43.80
2023-02-24T04:46:44.288Z,43.97
2023-02-24T04:49:47.538Z,44.77
2023-02-24T04:52:52.202Z,44.77
2023-02-24T04:55:57.279Z,44.53
2023-02-24T04:59:00.412Z,47.83
2023-02-24T05:02:03.787Z,52.93
2023-02-24T05:05:09.308Z,50.83
2023-02-24T05:08:15.862Z,50.53
2023-02-24T05:11:20.776Z,50.60
2023-02-24T05:14:25.052Z,54.50
2023-02-24T05:17:29.084Z,48.33
2023-02-24T05:20:49.368Z,52.17
2023-02-24T05:23:54.879Z,46.10
2023-02-24T05:27:00.197Z,48.17
2023-02-24T05:30:04.046Z,50.50
2023-02-24T05:33:08.497Z,43.57
2023-02-24T05:36:15.366Z,47.17
2023-02-24T05:39:20.282Z,48.47
2023-02-24T05:42:24.847Z,47.70
2023-02-24T05:45:30.479Z,46.83
2023-02-24T05:48:35.269Z,47.60
2023-02-24T05:51:43.681Z,50.27
2023-02-24T05:54:48.291Z,50.40
2023-02-24T05:57:53.368Z,53.03
2023-02-24T06:00:58.797Z,50.23
2023-02-24T06:04:05.962Z,44.47
2023-02-24T06:07:14.630Z,47.70
2023-02-24T06:10:18.321Z,52.67
2023-02-24T06:13:22.872Z,45.60
2023-02-24T06:16:26.316Z,47.23
2023-02-24T06:19:32.024Z,45.03
2023-02-24T06:22:42.365Z,44.43
2023-02-24T06:25:45.815Z,41.50
2023-02-24T06:28:54.864Z,49.40
2023-02-24T06:31:58.988Z,46.73
2023-02-24T06:35:02.261Z,47.63
2023-02-24T06:38:05.430Z,41.13
2023-02-24T06:41:11.835Z,47.83
2023-02-24T06:44:16.404Z,53.60
2023-02-24T06:47:19.671Z,51.20
2023-02-24T06:50:23.435Z,47.27
2023-02-24T06:53:26.770Z,45.50
2023-02-24T06:56:32.268Z,46.30
2023-02-24T06:59:37.245Z,42.57
2023-02-24T07:02:40.721Z,47.33
2023-02-24T07:05:50.245Z,47.60
2023-02-24T07:08:54.148Z,48.50
2023-02-24T07:11:58.829Z,42.20
2023-02-24T07:15:03.482Z,48.40
2023-02-24T07:18:14.848Z,44.83
2023-02-24T07:21:23.555Z,49.63
2023-02-24T07:24:33.253Z,48.73
2023-02-24T07:27:37.438Z,46.97
2023-02-24T07:30:42.700Z,46.23
2023-02-24T07:33:46.743Z,48.40
2023-02-24T07:36:50.270Z,45.90
2023-02-24T07:39:53.738Z,41.30
2023-02-24T07:42:57.364Z,45.20
2023-02-24T07:46:09.058Z,49.40
2023-02-24T07:49:15.445Z,44.47
2023-02-24T07:52:18.617Z,43.90
2023-02-24T07:55:23.821Z,41.30
2023-02-24T07:58:28.486Z,45.53
2023-02-24T08:01:39.092Z,45.90
2023-02-24T08:04:48.273Z,48.13
2023-02-24T08:07:52.242Z,45.50
2023-02-24T08:11:04.076Z,45.60
2023-02-24T08:14:10.963Z,40.53
2023-02-24T08:17:19.902Z,41.43
2023-02-24T08:20:25.119Z,40.40
2023-02-24T08:23:28.355Z,42.07
2023-02-24T08:26:31.857Z,45.37
2023-02-24T08:29:40.463Z,37.43
2023-02-24T08:32:46.792Z,42.20
2023-02-24T08:36:01.288Z,32.87
2023-02-24T08:39:06.017Z,34.20
2023-02-24T08:42:14.269Z,35.67
2023-02-24T08:45:17.557Z,31.83
2023-02-24T08:48:32.343Z,35.10
2023-02-24T08:51:36.745Z,32.60
2023-02-24T08:54:48.174Z,35.23
2023-02-24T08:57:53.544Z,32.17
2023-02-24T09:00:59.593Z,33.73
2023-02-24T09:04:07.702Z,33.03
2023-02-24T09:07:15.537Z,33.90
2023-02-24T09:10:20.008Z,31.40
2023-02-24T09:13:23.259Z,36.97
2023-02-24T09:16:26.793Z,36.80
2023-02-24T09:20:01.834Z,34.80
2023-02-24T09:23:07.441Z,34.37
2023-02-24T09:26:11.236Z,31.27
2023-02-24T09:29:28.851Z,29.92
2023-02-24T09:32:34.808Z,33.43
2023-02-24T09:35:41.981Z,32.67
2023-02-24T09:39:05.491Z,35.43
2023-02-24T09:42:33.579Z,35.43
2023-02-24T09:45:41.085Z,32.00
2023-02-24T09:48:51.518Z,32.63
2023-02-24T09:52:08.997Z,30.17
2023-02-24T09:55:26.090Z,30.93
2023-02-24T09:58:44.033Z,31.13
2023-02-24T10:01:52.817Z,30.33
2023-02-24T10:05:07.510Z,29.53
2023-02-24T10:08:18.100Z,26.03
2023-02-24T10:11:33.004Z,27.13
2023-02-24T10:14:44.671Z,24.88
2023-02-24T10:17:57.268Z,23.08
2023-02-24T10:21:15.678Z,21.08
2023-02-24T10:24:29.475Z,22.65
2023-02-24T10:27:36.817Z,22.65
2023-02-24T10:30:49.137Z,24.02
2023-02-24T10:33:56.902Z,24.83
2023-02-24T10:37:07.746Z,24.25
2023-02-24T10:40:17.491Z,22.05
2023-02-24T10:43:30.543Z,23.20
2023-02-24T10:46:41.442Z,20.85
2023-02-24T10:49:57.889Z,20.95
2023-02-24T10:53:26.537Z,21.17
2023-02-24T10:56:41.966Z,20.33
2023-02-24T11:00:06.413Z,21.90
2023-02-24T11:03:22.036Z,19.53
2023-02-24T11:06:42.455Z,20.77
2023-02-24T11:09:52.235Z,21.47
2023-02-24T11:13:15.227Z,19.33
2023-02-24T11:16:36.046Z,20.23
2023-02-24T11:19:44.208Z,19.00
2023-02-24T11:22:52.129Z,17.60
2023-02-24T11:26:00.894Z,21.50
2023-02-24T11:29:24.768Z,21.00
2023-02-24T11:32:42.863Z,17.20
2023-02-24T11:35:58.179Z,18.27
2023-02-24T11:39:20.071Z,16.93
2023-02-24T11:42:28.139Z,17.90
2023-02-24T11:45:37.763Z,20.77
2023-02-24T11:48:44.886Z,17.37
2023-02-24T11:51:48.175Z,16.95
2023-02-24T11:54:56.212Z,18.27
2023-02-24T11:58:02.216Z,18.75
2023-02-24T12:01:14.480Z,17.63
2023-02-24T12:04:21.885Z,16.58
2023-02-24T12:07:30.633Z,19.33
2023-02-24T12:10:37.061Z,18.90
2023-02-24T12:13:46.763Z,18.85
2023-02-24T12:17:00.116Z,19.27
2023-02-24T12:20:07.015Z,18.40
2023-02-24T12:23:18.207Z,18.17
2023-02-24T12:26:25.190Z,16.95
2023-02-24T12:29:54.600Z,17.70
2023-02-24T12:33:10.352Z,17.10
2023-02-24T12:36:28.743Z,16.17
2023-02-24T12:39:42.128Z,17.50
2023-02-24T12:42:52.747Z,17.33
2023-02-24T12:46:04.531Z,17.52
2023-02-24T12:49:29.085Z,17.80
2023-02-24T12:52:40.439Z,16.38
2023-02-24T12:55:52.934Z,17.15
2023-02-24T12:59:02.484Z,16.23
2023-02-24T13:02:13.569Z,16.27
2023-02-24T13:05:23.879Z,15.55
2023-02-24T13:08:38.644Z,16.85
2023-02-24T13:11:47.242Z,17.60
2023-02-24T13:14:51.510Z,16.65
2023-02-24T13:17:58.235Z,16.65
2023-02-24T13:21:09.932Z,17.30
2023-02-24T13:24:22.827Z,18.30
2023-02-24T13:27:28.949Z,18.45
2023-02-24T13:30:42.026Z,18.27
2023-02-24T13:33:48.441Z,17.90
2023-02-24T13:36:53.274Z,19.35
2023-02-24T13:39:56.994Z,19.58
2023-02-24T13:43:04.750Z,19.20
2023-02-24T13:46:21.045Z,18.30
2023-02-24T13:49:35.848Z,19.02
2023-02-24T13:52:54.536Z,19.05
2023-02-24T13:56:15.714Z,17.00
2023-02-24T13:59:37.756Z,16.00
2023-02-24T14:02:44.341Z,17.48
2023-02-24T14:05:49.124Z,18.57
2023-02-24T14:08:57.337Z,17.83
2023-02-24T14:12:04.140Z,16.30
2023-02-24T14:15:12.788Z,15.60
2023-02-24T14:18:21.324Z,16.33
2023-02-24T14:21:26.205Z,16.67
2023-02-24T14:24:30.988Z,16.70
2023-02-24T14:27:34.244Z,14.53
2023-02-24T14:30:40.137Z,13.90
2023-02-24T14:33:45.788Z,17.63
2023-02-24T14:36:50.864Z,16.47
2023-02-24T14:39:57.584Z,14.60
2023-02-24T14:43:00.740Z,15.40
2023-02-24T14:46:07.344Z,13.23
2023-02-24T14:49:20.611Z,16.40
2023-02-24T14:52:35.437Z,17.07
2023-02-24T14:55:42.706Z,17.07
2023-02-24T14:58:51.506Z,19.63
2023-02-24T15:01:57.542Z,17.17
2023-02-24T15:05:01.566Z,69.97
2023-02-24T15:08:05.358Z,15.93
2023-02-24T15:11:20.051Z,14.67
2023-02-24T15:14:25.752Z,15.63
2023-02-24T15:17:29.404Z,15.40
2023-02-24T15:20:35.185Z,21.13
2023-02-24T15:23:39.854Z,20.60
2023-02-24T15:26:52.776Z,18.07
2023-02-24T15:30:02.217Z,17.17
2023-02-24T15:33:13.513Z,15.83
2023-02-24T15:36:21.626Z,14.77
2023-02-24T15:39:28.986Z,16.17
2023-02-24T15:42:36.283Z,17.23
2023-02-24T15:45:41.171Z,13.23
2023-02-24T15:48:46.228Z,17.57
2023-02-24T15:51:51.378Z,18.47
2023-02-24T15:54:55.610Z,20.80
2023-02-24T15:58:03.095Z,17.10
2023-02-24T16:01:06.867Z,17.20
2023-02-24T16:04:10.495Z,17.80
2023-02-24T16:07:18.736Z,19.27
2023-02-24T16:10:25.002Z,18.40
2023-02-24T16:13:30.495Z,15.00
2023-02-24T16:16:34.489Z,18.27
2023-02-24T16:19:38.521Z,24.40
2023-02-24T16:22:42.148Z,19.60
2023-02-24T16:25:47.095Z,28.83
2023-02-24T16:28:54.635Z,23.33
2023-02-24T16:31:58.013Z,22.83
2023-02-24T16:35:02.747Z,19.17
2023-02-24T16:38:06.876Z,16.73
2023-02-24T16:41:13.204Z,20.77
2023-02-24T16:44:18.919Z,20.60
2023-02-24T16:47:25.885Z,19.37
2023-02-24T16:50:33.892Z,19.27
2023-02-24T16:53:37.485Z,19.23
2023-02-24T16:56:40.931Z,17.27
2023-02-24T16:59:46.525Z,17.70
2023-02-24T17:02:50.784Z,19.57
2023-02-24T17:05:55.134Z,17.90
2023-02-24T17:08:58.498Z,19.50
2023-02-24T17:12:02.212Z,24.90
2023-02-24T17:15:10.419Z,20.20
2023-02-24T17:18:14.314Z,21.67
2023-02-24T17:21:18.831Z,19.23
2023-02-24T17:24:25.063Z,18.27
2023-02-24T17:27:28.970Z,23.33
2023-02-24T17:30:35.936Z,22.80
2023-02-24T17:33:41.123Z,19.10
2023-02-24T17:36:44.736Z,18.80
2023-02-24T17:39:48.847Z,18.57
2023-02-24T17:42:52.646Z,17.70
2023-02-24T17:45:58.175Z,23.60
2023-02-24T17:49:03.271Z,22.30
2023-02-24T17:52:07.724Z,22.23
2023-02-24T17:55:12.298Z,25.43
2023-02-24T17:58:16.225Z,16.80
2023-02-24T18:01:21.897Z,20.83
2023-02-24T18:04:25.578Z,25.57
2023-02-24T18:07:29.494Z,21.40
2023-02-24T18:10:34.627Z,23.23
2023-02-24T18:13:38.975Z,23.40
2023-02-24T18:16:44.182Z,20.47
2023-02-24T18:19:48.102Z,27.07
2023-02-24T18:22:52.369Z,24.70
2023-02-24T18:25:56.410Z,21.13
2023-02-24T18:29:00.817Z,20.67
2023-02-24T18:32:07.300Z,19.70
2023-02-24T18:35:11.774Z,18.87
2023-02-24T18:38:18.263Z,23.47
2023-02-24T18:41:25.209Z,25.83
2023-02-24T18:44:29.716Z,25.00
2023-02-24T18:47:35.741Z,24.50
2023-02-24T18:50:40.121Z,27.77
2023-02-24T18:53:44.945Z,23.80
2023-02-24T18:56:50.173Z,24.17
2023-02-24T18:59:59.794Z,21.10
2023-02-24T19:03:07.231Z,25.40
2023-02-24T19:06:12.704Z,29.13
2023-02-24T19:09:22.836Z,26.50
2023-02-24T19:12:29.176Z,22.63
2023-02-24T19:15:33.935Z,27.50
2023-02-24T19:18:45.135Z,21.40
2023-02-24T19:21:49.949Z,25.00
2023-02-24T19:24:54.397Z,26.07
2023-02-24T19:27:58.883Z,31.67
2023-02-24T19:31:03.265Z,26.70
2023-02-24T19:34:14.281Z,30.77
2023-02-24T19:37:21.735Z,23.57
2023-02-24T19:40:29.304Z,27.90
2023-02-24T19:43:36.307Z,22.67
2023-02-24T19:46:40.893Z,22.77
2023-02-24T19:49:46.974Z,24.70
2023-02-24T19:52:52.349Z,27.70
2023-02-24T19:55:57.570Z,24.03
2023-02-24T19:59:04.930Z,24.57
2023-02-24T20:02:11.387Z,24.97
2023-02-24T20:05:21.897Z,22.77
2023-02-24T20:08:26.671Z,25.13
2023-02-24T20:11:33.441Z,28.10
2023-02-24T20:14:38.328Z,27.20
2023-02-24T20:17:44.321Z,29.83
2023-02-24T20:20:51.646Z,25.70
2023-02-24T20:23:58.472Z,28.37
2023-02-24T20:27:05.305Z,27.13
2023-02-24T20:30:12.607Z,24.87
2023-02-24T20:33:17.421Z,22.53
2023-02-24T20:36:26.262Z,22.23
2023-02-24T20:39:29.961Z,31.80
2023-02-24T20:42:35.856Z,26.20
2023-02-24T20:45:43.100Z,64.77
2023-02-24T20:48:48.142Z,33.73
2023-02-24T20:51:57.351Z,33.37
2023-02-24T20:55:04.680Z,30.73
2023-02-24T20:58:09.297Z,31.20
2023-02-24T21:01:14.132Z,26.30
2023-02-24T21:04:20.858Z,34.43
2023-02-24T21:07:26.166Z,34.97
2023-02-24T21:10:31.118Z,36.27
2023-02-24T21:13:35.273Z,30.87
2023-02-24T21:16:39.563Z,28.63
2023-02-24T21:19:43.376Z,29.13
2023-02-24T21:22:49.049Z,31.70
2023-02-24T21:25:53.761Z,31.43
2023-02-24T21:28:59.727Z,28.50
2023-02-24T21:32:03.834Z,27.00
2023-02-24T21:35:08.434Z,36.90
2023-02-24T21:38:13.016Z,30.67
2023-02-24T21:41:19.328Z,32.60
2023-02-24T21:44:23.609Z,30.70
2023-02-24T21:47:26.869Z,27.00
2023-02-24T21:50:30.390Z,27.23
2023-02-24T21:53:39.300Z,31.97
2023-02-24T21:56:43.138Z,27.33
2023-02-24T21:59:46.752Z,25.73
2023-02-24T22:02:52.361Z,33.10
2023-02-24T22:05:55.695Z,35.87
2023-02-24T22:09:01.854Z,29.57
2023-02-24T22:12:06.160Z,34.60
2023-02-24T22:15:10.765Z,36.13
2023-02-24T22:18:13.934Z,39.77
2023-02-24T22:21:19.297Z,30.70
2023-02-24T22:24:23.880Z,26.97
2023-02-24T22:27:27.026Z,40.07
2023-02-24T22:30:30.322Z,32.50
2023-02-24T22:33:36.216Z,28.73
2023-02-24T22:36:39.683Z,30.90
2023-02-24T22:39:44.356Z,39.00
2023-02-24T22:42:47.556Z,27.80
2023-02-24T22:45:57.516Z,32.23
2023-02-24T22:49:01.462Z,27.73
2023-02-24T22:52:04.672Z,33.17
2023-02-24T22:55:10.274Z,43.83
2023-02-24T22:58:13.481Z,29.50
2023-02-24T23:01:18.730Z,30.70
2023-02-24T23:04:21.969Z,39.30
2023-02-24T23:07:25.182Z,29.77
2023-02-24T23:10:29.745Z,27.97
2023-02-24T23:13:35.373Z,34.10
2023-02-24T23:16:39.742Z,27.00
2023-02-24T23:19:42.946Z,30.80
2023-02-24T23:22:46.360Z,31.53
2023-02-24T23:25:52.709Z,25.93
2023-02-24T23:28:56.921Z,40.10
2023-02-24T23:32:00.238Z,36.60
2023-02-24T23:35:03.588Z,28.00
2023-02-24T23:38:06.725Z,34.37
2023-02-24T23:41:12.741Z,25.90
2023-02-24T23:44:16.030Z,24.30
2023-02-24T23:47:19.204Z,33.80
2023-02-24T23:50:22.498Z,28.70
2023-02-24T23:53:26.102Z,27.90
2023-02-24T23:56:31.742Z,28.30
2023-02-24T23:59:34.971Z,28.10
